Aviation Digital Data Service (ADDS)

Output produced by METARs form (0421 UTC 26 June 2019)
found at http://www.aviationweather.gov/metar/data/
 
METAR text: LERI 251800Z 06012KT 020V080 CAVOK 28/18 Q1014 NOSIG
Conditions at: LERI (ALCANTARILLA(SP-, ES) observed 1800 UTC 25 June 2019
Temperature: 28.0°C (82°F)
Dewpoint: 18.0°C (64°F) [RH = 55%]
Pressure (altimeter): 29.94 inches Hg (1014.0 mb)
Winds: from the ENE (60 degrees) at 14 MPH (12 knots; 6.2 m/s)
Visibility: 6 or more miles (10+ km)
Ceiling: ceiling and visibility are OK
Clouds: unknown
Weather: no significant weather observed at this time

METAR text: LERI 251700Z 05012KT 020V100 CAVOK 30/18 Q1014 NOSIG
Conditions at: LERI (ALCANTARILLA(SP-, ES) observed 1700 UTC 25 June 2019
Temperature: 30.0°C (86°F)
Dewpoint: 18.0°C (64°F) [RH = 49%]
Pressure (altimeter): 29.94 inches Hg (1014.0 mb)
Winds: from the NE (50 degrees) at 14 MPH (12 knots; 6.2 m/s)
Visibility: 6 or more miles (10+ km)
Ceiling: ceiling and visibility are OK
Clouds: unknown
Weather: no significant weather observed at this time

METAR text: LERI 251600Z 13005KT 020V170 CAVOK 31/18 Q1014 NOSIG
Conditions at: LERI (ALCANTARILLA(SP-, ES) observed 1600 UTC 25 June 2019
Temperature: 31.0°C (88°F)
Dewpoint: 18.0°C (64°F) [RH = 46%]
Pressure (altimeter): 29.94 inches Hg (1014.0 mb)
Winds: from the SE (130 degrees) at 6 MPH (5 knots; 2.6 m/s)
Visibility: 6 or more miles (10+ km)
Ceiling: ceiling and visibility are OK
Clouds: unknown
Weather: no significant weather observed at this time

METAR text: LERI 251500Z 14008KT 100V200 CAVOK 31/18 Q1014 NOSIG
Conditions at: LERI (ALCANTARILLA(SP-, ES) observed 1500 UTC 25 June 2019
Temperature: 31.0°C (88°F)
Dewpoint: 18.0°C (64°F) [RH = 46%]
Pressure (altimeter): 29.94 inches Hg (1014.0 mb)
Winds: from the SE (140 degrees) at 9 MPH (8 knots; 4.1 m/s)
Visibility: 6 or more miles (10+ km)
Ceiling: ceiling and visibility are OK
Clouds: unknown
Weather: no significant weather observed at this time

METAR text: LERI 251400Z 13011KT 100V160 CAVOK 32/18 Q1014 NOSIG
Conditions at: LERI (ALCANTARILLA(SP-, ES) observed 1400 UTC 25 June 2019
Temperature: 32.0°C (90°F)
Dewpoint: 18.0°C (64°F) [RH = 43%]
Pressure (altimeter): 29.94 inches Hg (1014.0 mb)
Winds: from the SE (130 degrees) at 13 MPH (11 knots; 5.7 m/s)
Visibility: 6 or more miles (10+ km)
Ceiling: ceiling and visibility are OK
Clouds: unknown
Weather: no significant weather observed at this time

METAR text: LERI 251300Z 14011KT 100V170 CAVOK 32/18 Q1015 NOSIG
Conditions at: LERI (ALCANTARILLA(SP-, ES) observed 1300 UTC 25 June 2019
Temperature: 32.0°C (90°F)
Dewpoint: 18.0°C (64°F) [RH = 43%]
Pressure (altimeter): 29.97 inches Hg (1015.0 mb)
Winds: from the SE (140 degrees) at 13 MPH (11 knots; 5.7 m/s)
Visibility: 6 or more miles (10+ km)
Ceiling: ceiling and visibility are OK
Clouds: unknown
Weather: no significant weather observed at this time

METAR text: LERI 251200Z 07006KT 340V140 CAVOK 33/18 Q1015 NOSIG
Conditions at: LERI (ALCANTARILLA(SP-, ES) observed 1200 UTC 25 June 2019
Temperature: 33.0°C (91°F)
Dewpoint: 18.0°C (64°F) [RH = 41%]
Pressure (altimeter): 29.97 inches Hg (1015.0 mb)
Winds: from the ENE (70 degrees) at 7 MPH (6 knots; 3.1 m/s)
Visibility: 6 or more miles (10+ km)
Ceiling: ceiling and visibility are OK
Clouds: unknown
Weather: no significant weather observed at this time

METAR text: LERI 251100Z VRB02KT CAVOK 30/17 Q1015 NOSIG
Conditions at: LERI (ALCANTARILLA(SP-, ES) observed 1100 UTC 25 June 2019
Temperature: 30.0°C (86°F)
Dewpoint: 17.0°C (63°F) [RH = 46%]
Pressure (altimeter): 29.97 inches Hg (1015.0 mb)
Winds: variable direction winds at 2 MPH (2 knots; 1.0 m/s)
Visibility: 6 or more miles (10+ km)
Ceiling: ceiling and visibility are OK
Clouds: unknown
Weather: no significant weather observed at this time

METAR text: LERI 251000Z VRB02KT CAVOK 28/16 Q1016 NOSIG
Conditions at: LERI (ALCANTARILLA(SP-, ES) observed 1000 UTC 25 June 2019
Temperature: 28.0°C (82°F)
Dewpoint: 16.0°C (61°F) [RH = 48%]
Pressure (altimeter): 30.00 inches Hg (1016.0 mb)
Winds: variable direction winds at 2 MPH (2 knots; 1.0 m/s)
Visibility: 6 or more miles (10+ km)
Ceiling: ceiling and visibility are OK
Clouds: unknown
Weather: no significant weather observed at this time

METAR text: LERI 250900Z VRB02KT CAVOK 27/16 Q1016 NOSIG
Conditions at: LERI (ALCANTARILLA(SP-, ES) observed 0900 UTC 25 June 2019
Temperature: 27.0°C (81°F)
Dewpoint: 16.0°C (61°F) [RH = 51%]
Pressure (altimeter): 30.00 inches Hg (1016.0 mb)
Winds: variable direction winds at 2 MPH (2 knots; 1.0 m/s)
Visibility: 6 or more miles (10+ km)
Ceiling: ceiling and visibility are OK
Clouds: unknown
Weather: no significant weather observed at this time

METAR text: LERI 250800Z 12001KT CAVOK 26/16 Q1016 NOSIG
Conditions at: LERI (ALCANTARILLA(SP-, ES) observed 0800 UTC 25 June 2019
Temperature: 26.0°C (79°F)
Dewpoint: 16.0°C (61°F) [RH = 54%]
Pressure (altimeter): 30.00 inches Hg (1016.0 mb)
Winds: from the ESE (120 degrees) at 1 MPH (1 knots; 0.5 m/s)
Visibility: 6 or more miles (10+ km)
Ceiling: ceiling and visibility are OK
Clouds: unknown
Weather: no significant weather observed at this time

METAR text: LERI 250700Z VRB02KT CAVOK 23/16 Q1016 NOSIG
Conditions at: LERI (ALCANTARILLA(SP-, ES) observed 0700 UTC 25 June 2019
Temperature: 23.0°C (73°F)
Dewpoint: 16.0°C (61°F) [RH = 65%]
Pressure (altimeter): 30.00 inches Hg (1016.0 mb)
Winds: variable direction winds at 2 MPH (2 knots; 1.0 m/s)
Visibility: 6 or more miles (10+ km)
Ceiling: ceiling and visibility are OK
Clouds: unknown
Weather: no significant weather observed at this time

METAR text: LERI 250600Z VRB02KT CAVOK 20/16 Q1015 NOSIG
Conditions at: LERI (ALCANTARILLA(SP-, ES) observed 0600 UTC 25 June 2019
Temperature: 20.0°C (68°F)
Dewpoint: 16.0°C (61°F) [RH = 78%]
Pressure (altimeter): 29.97 inches Hg (1015.0 mb)
Winds: variable direction winds at 2 MPH (2 knots; 1.0 m/s)
Visibility: 6 or more miles (10+ km)
Ceiling: ceiling and visibility are OK
Clouds: unknown
Weather: no significant weather observed at this time

METAR text: LERI 241800Z 14008KT 100V160 CAVOK 30/15 Q1012 NOSIG
Conditions at: LERI (ALCANTARILLA(SP-, ES) observed 1800 UTC 24 June 2019
Temperature: 30.0°C (86°F)
Dewpoint: 15.0°C (59°F) [RH = 40%]
Pressure (altimeter): 29.88 inches Hg (1012.0 mb)
Winds: from the SE (140 degrees) at 9 MPH (8 knots; 4.1 m/s)
Visibility: 6 or more miles (10+ km)
Ceiling: ceiling and visibility are OK
Clouds: unknown
Weather: no significant weather observed at this time

METAR text: LERI 241700Z 12008KT 080V160 CAVOK 31/15 Q1011 NOSIG
Conditions at: LERI (ALCANTARILLA(SP-, ES) observed 1700 UTC 24 June 2019
Temperature: 31.0°C (88°F)
Dewpoint: 15.0°C (59°F) [RH = 38%]
Pressure (altimeter): 29.85 inches Hg (1011.0 mb)
Winds: from the ESE (120 degrees) at 9 MPH (8 knots; 4.1 m/s)
Visibility: 6 or more miles (10+ km)
Ceiling: ceiling and visibility are OK
Clouds: unknown
Weather: no significant weather observed at this time

Forecast for: AMD
Text: TAF AMD LERI 260401Z 2604/2612 VRB03KT CAVOK
Forecast period: 0400 to 1200 UTC 26 June 2019
Forecast type: FROM: standard forecast or significant change
Winds: variable direction winds at 3 MPH (3 knots; 1.5 m/s)
Visibility: 6 or more miles 10+ km)
Ceiling: unknown
Clouds: missing
Weather: NSW  (no significant weather)
Text: PROB30
Forecast period: 0400 to 0800 UTC 26 June 2019
Forecast type: TEMPORARY: The following changes expected for less than half the time period
Visibility: 1.86 miles (2.99 km)
Ceiling: 1200 feet AGL
Clouds: broken clouds at 1200 feet AGL
Weather: BR  (mist)